createdAt,value
2019-05-03T00:02:42.710Z,46.47
2019-05-03T00:05:32.666Z,44.00
2019-05-03T00:08:21.752Z,43.73
2019-05-03T00:11:09.626Z,43.40
2019-05-03T00:13:57.631Z,44.27
2019-05-03T00:16:47.307Z,44.40
2019-05-03T00:19:35.734Z,45.97
2019-05-03T00:22:23.386Z,51.23
2019-05-03T00:25:12.869Z,45.13
2019-05-03T00:28:01.852Z,46.50
2019-05-03T00:30:51.894Z,46.27
2019-05-03T00:33:42.258Z,43.83
2019-05-03T00:36:34.784Z,49.13
2019-05-03T00:39:27.675Z,45.53
2019-05-03T00:42:15.765Z,49.43
2019-05-03T00:45:05.174Z,47.10
2019-05-03T00:47:53.345Z,50.83
2019-05-03T00:50:42.530Z,45.70
2019-05-03T00:53:31.767Z,46.37
2019-05-03T00:56:21.599Z,41.60
2019-05-03T00:59:09.672Z,45.97
2019-05-03T01:01:57.305Z,47.10
2019-05-03T01:04:45.261Z,42.70
2019-05-03T01:07:32.984Z,46.63
2019-05-03T01:10:22.590Z,43.10
2019-05-03T01:13:12.335Z,43.87
2019-05-03T01:16:04.897Z,44.90
2019-05-03T01:18:52.565Z,39.87
2019-05-03T01:21:42.212Z,40.20
2019-05-03T01:24:32.118Z,44.47
2019-05-03T01:27:19.597Z,42.73
2019-05-03T01:30:08.132Z,41.47
2019-05-03T01:32:55.794Z,42.57
2019-05-03T01:35:43.461Z,42.93
2019-05-03T01:38:31.863Z,42.07
2019-05-03T01:41:21.739Z,40.00
2019-05-03T01:44:09.366Z,41.53
2019-05-03T01:46:58.809Z,41.77
2019-05-03T01:49:48.524Z,38.80
2019-05-03T01:52:37.893Z,40.07
2019-05-03T01:55:27.735Z,43.07
2019-05-03T01:58:15.496Z,42.13
2019-05-03T02:01:22.086Z,37.77
2019-05-03T02:04:12.252Z,40.67
2019-05-03T02:07:02.202Z,37.13
2019-05-03T02:09:51.880Z,44.40
2019-05-03T02:12:41.678Z,45.80
2019-05-03T02:15:29.608Z,43.17
2019-05-03T02:18:17.612Z,42.87
2019-05-03T02:21:05.217Z,41.27
2019-05-03T02:23:53.245Z,41.60
2019-05-03T02:26:42.517Z,44.57
2019-05-03T02:29:32.391Z,45.47
2019-05-03T02:32:23.120Z,41.47
2019-05-03T02:35:09.920Z,47.43
2019-05-03T02:37:57.950Z,45.57
2019-05-03T02:40:45.844Z,47.97
2019-05-03T02:43:36.415Z,46.97
2019-05-03T02:46:26.806Z,43.77
2019-05-03T02:49:22.180Z,49.13
2019-05-03T02:52:11.950Z,47.23
2019-05-03T02:54:59.836Z,53.97
2019-05-03T02:57:47.804Z,45.97
2019-05-03T03:00:59.573Z,50.60
2019-05-03T03:03:47.581Z,51.17
2019-05-03T03:06:36.972Z,50.87
2019-05-03T03:09:25.896Z,51.50
2019-05-03T03:12:15.247Z,50.87
2019-05-03T03:15:06.178Z,50.57
2019-05-03T03:17:56.126Z,53.77
2019-05-03T03:20:47.075Z,50.57
2019-05-03T03:23:37.742Z,46.83
2019-05-03T03:26:37.668Z,47.53
2019-05-03T03:29:21.450Z,47.80
2019-05-03T03:32:18.223Z,51.90
2019-05-03T03:35:21.379Z,48.23
2019-05-03T03:38:05.807Z,49.50
2019-05-03T03:40:58.625Z,57.70
2019-05-03T03:43:46.356Z,50.93
2019-05-03T03:46:36.034Z,49.23
2019-05-03T03:49:26.039Z,50.77
2019-05-03T03:52:16.049Z,49.73
2019-05-03T03:55:06.419Z,53.70
2019-05-03T03:57:55.689Z,52.27
2019-05-03T04:00:46.390Z,49.47
2019-05-03T04:03:36.178Z,47.80
2019-05-03T04:06:26.846Z,49.60
2019-05-03T04:09:16.041Z,48.37
2019-05-03T04:12:06.029Z,47.30
2019-05-03T04:14:56.399Z,49.60
2019-05-03T04:18:05.633Z,51.63
2019-05-03T04:20:55.979Z,47.17
2019-05-03T04:23:45.716Z,45.67
2019-05-03T04:26:35.645Z,48.97
2019-05-03T04:29:25.423Z,45.20
2019-05-03T04:32:15.432Z,43.27
2019-05-03T04:35:05.160Z,46.47
2019-05-03T04:37:52.016Z,42.77
2019-05-03T04:40:40.053Z,41.03
2019-05-03T04:43:28.105Z,39.50
2019-05-03T04:46:20.495Z,39.93
2019-05-03T04:49:08.351Z,36.00
2019-05-03T04:51:56.622Z,33.50
2019-05-03T04:54:49.216Z,33.23
2019-05-03T04:57:45.134Z,30.63
2019-05-03T05:00:26.917Z,31.37
2019-05-03T05:03:15.242Z,32.67
2019-05-03T05:06:05.981Z,30.80
2019-05-03T05:08:55.004Z,32.73
2019-05-03T05:11:42.692Z,29.87
2019-05-03T05:14:30.413Z,35.13
2019-05-03T05:17:20.836Z,36.03
2019-05-03T05:20:14.481Z,37.57
2019-05-03T05:23:04.441Z,38.90
2019-05-03T05:26:06.296Z,41.70
2019-05-03T05:29:01.919Z,44.87
2019-05-03T05:31:49.638Z,47.13
2019-05-03T05:34:40.147Z,43.87
2019-05-03T05:37:27.814Z,42.03
2019-05-03T05:40:18.863Z,40.33
2019-05-03T05:43:07.019Z,41.20
2019-05-03T05:45:55.703Z,35.17
2019-05-03T05:48:49.589Z,39.70
2019-05-03T05:51:38.688Z,37.17
2019-05-03T05:54:26.509Z,39.50
2019-05-03T05:57:25.584Z,38.60
2019-05-03T06:00:21.419Z,37.87
2019-05-03T06:03:09.079Z,31.70
2019-05-03T06:05:58.929Z,30.73
2019-05-03T06:08:57.606Z,27.73
2019-05-03T06:12:02.097Z,26.53
2019-05-03T06:14:57.877Z,24.03
2019-05-03T06:17:47.238Z,25.33
2019-05-03T06:20:36.800Z,21.23
2019-05-03T06:23:26.223Z,21.10
2019-05-03T06:26:31.983Z,19.77
2019-05-03T06:29:20.299Z,18.97
2019-05-03T06:32:09.815Z,20.63
2019-05-03T06:34:57.647Z,19.23
2019-05-03T06:37:46.323Z,16.70
2019-05-03T06:40:35.393Z,17.90
2019-05-03T06:43:24.505Z,18.73
2019-05-03T06:46:12.592Z,17.87
2019-05-03T06:49:01.027Z,22.13
2019-05-03T06:51:49.908Z,20.70
2019-05-03T06:54:38.032Z,21.50
2019-05-03T06:57:26.206Z,20.00
2019-05-03T07:00:18.088Z,21.43
2019-05-03T07:03:07.501Z,22.43
2019-05-03T07:06:15.024Z,20.13
2019-05-03T07:09:07.624Z,22.00
2019-05-03T07:11:55.608Z,21.87
2019-05-03T07:14:45.021Z,22.40
2019-05-03T07:17:34.918Z,19.00
2019-05-03T07:20:25.289Z,21.60
2019-05-03T07:23:15.414Z,21.77
2019-05-03T07:26:05.209Z,21.30
2019-05-03T07:28:54.589Z,20.07
2019-05-03T07:31:44.641Z,16.43
2019-05-03T07:34:34.928Z,17.20
2019-05-03T07:37:24.444Z,19.90
2019-05-03T07:40:11.997Z,19.60
2019-05-03T07:43:00.083Z,15.83
2019-05-03T07:45:48.358Z,16.57
2019-05-03T07:48:36.362Z,16.73
2019-05-03T07:51:25.025Z,16.20
2019-05-03T07:54:15.537Z,14.70
2019-05-03T07:57:05.187Z,14.60
2019-05-03T07:59:55.722Z,15.17
2019-05-03T08:02:44.682Z,16.17
2019-05-03T08:05:34.863Z,15.90
2019-05-03T08:08:22.300Z,13.47
2019-05-03T08:11:10.110Z,13.47
2019-05-03T08:13:57.734Z,13.57
2019-05-03T08:16:45.718Z,14.10
2019-05-03T08:19:35.531Z,15.70
2019-05-03T08:22:23.029Z,14.33
2019-05-03T08:25:10.814Z,14.37
2019-05-03T08:27:58.460Z,12.77
2019-05-03T08:30:51.152Z,11.60
2019-05-03T08:33:40.784Z,14.43
2019-05-03T08:36:30.052Z,13.27
2019-05-03T08:39:18.009Z,15.03
2019-05-03T08:42:07.874Z,11.43
2019-05-03T08:44:56.060Z,9.20
2019-05-03T08:47:45.044Z,9.43
2019-05-03T08:50:34.746Z,9.07
2019-05-03T08:53:25.430Z,12.70
2019-05-03T08:56:12.705Z,9.80
2019-05-03T08:59:00.479Z,14.47
2019-05-03T09:01:48.417Z,13.13
2019-05-03T09:04:38.547Z,11.87
2019-05-03T09:07:26.284Z,10.17
2019-05-03T09:10:17.000Z,9.10
2019-05-03T09:13:07.019Z,9.90
2019-05-03T09:15:55.923Z,8.73
2019-05-03T09:18:45.455Z,8.13
2019-05-03T09:21:34.738Z,10.63
2019-05-03T09:24:24.576Z,8.27
2019-05-03T09:27:12.724Z,6.93
2019-05-03T09:30:01.440Z,6.57
2019-05-03T09:32:49.434Z,7.77
2019-05-03T09:35:38.872Z,7.77
2019-05-03T09:38:26.906Z,7.00
2019-05-03T09:41:15.226Z,7.17
2019-05-03T09:44:04.770Z,9.40
2019-05-03T09:46:54.800Z,6.83
2019-05-03T09:49:45.379Z,7.23
2019-05-03T09:52:35.522Z,7.60
2019-05-03T09:55:30.658Z,7.30
2019-05-03T09:58:18.648Z,7.30
2019-05-03T10:01:08.567Z,8.43
2019-05-03T10:03:56.091Z,7.67
2019-05-03T10:06:45.291Z,12.30
2019-05-03T10:09:35.194Z,9.53
2019-05-03T10:12:25.461Z,11.13
2019-05-03T10:15:15.551Z,10.67
2019-05-03T10:18:10.619Z,8.47
2019-05-03T10:20:53.008Z,8.17
2019-05-03T10:23:40.950Z,9.77
2019-05-03T10:26:28.980Z,9.37
2019-05-03T10:29:16.835Z,7.83
2019-05-03T10:32:21.471Z,8.53
2019-05-03T10:35:11.120Z,7.70
2019-05-03T10:37:59.046Z,9.13
2019-05-03T10:40:46.988Z,8.17
2019-05-03T10:43:35.503Z,7.27
2019-05-03T10:46:25.079Z,7.80
2019-05-03T10:49:15.152Z,7.70
2019-05-03T10:52:05.620Z,7.23
2019-05-03T10:54:55.813Z,7.00
2019-05-03T10:57:45.572Z,7.73
2019-05-03T11:00:49.718Z,7.20
2019-05-03T11:03:22.452Z,6.27
2019-05-03T11:06:10.245Z,7.77
2019-05-03T11:08:59.794Z,8.00
2019-05-03T11:11:47.849Z,7.37
2019-05-03T11:14:35.814Z,7.57
2019-05-03T11:17:25.569Z,7.37
2019-05-03T11:20:28.037Z,8.13
2019-05-03T11:23:07.709Z,10.20
2019-05-03T11:25:55.837Z,7.73
2019-05-03T11:28:44.858Z,9.60
2019-05-03T11:31:54.956Z,10.07
2019-05-03T11:34:46.680Z,8.17
2019-05-03T11:37:52.586Z,7.77
2019-05-03T11:40:40.187Z,6.77
2019-05-03T11:43:34.995Z,7.83
2019-05-03T11:46:24.797Z,6.73
2019-05-03T11:49:14.786Z,6.67
2019-05-03T11:52:02.448Z,6.80
2019-05-03T11:54:50.670Z,4.70
2019-05-03T11:57:38.520Z,3.87
2019-05-03T12:00:28.126Z,3.30
2019-05-03T12:03:17.494Z,3.73
2019-05-03T12:06:05.176Z,6.53
2019-05-03T12:08:55.265Z,4.80
2019-05-03T12:11:42.897Z,4.43
2019-05-03T12:14:30.688Z,4.93
2019-05-03T12:17:26.779Z,4.00
2019-05-03T12:20:11.600Z,3.67
2019-05-03T12:23:00.281Z,5.13
2019-05-03T12:25:49.482Z,4.77
2019-05-03T12:28:37.388Z,4.37
2019-05-03T12:31:33.889Z,5.80
2019-05-03T12:34:15.935Z,4.27
2019-05-03T12:37:05.212Z,6.40
2019-05-03T12:39:54.892Z,5.63
2019-05-03T12:42:42.688Z,5.17
2019-05-03T12:45:30.377Z,7.93
2019-05-03T12:48:18.277Z,13.17
2019-05-03T12:51:07.656Z,50.87
2019-05-03T12:53:56.113Z,4.73
2019-05-03T12:56:45.375Z,4.27
2019-05-03T12:59:41.619Z,3.10
2019-05-03T13:02:46.779Z,3.23
2019-05-03T13:05:35.630Z,5.10
2019-05-03T13:08:35.203Z,8.23
2019-05-03T13:11:25.166Z,3.93
2019-05-03T13:14:12.832Z,7.17
2019-05-03T13:17:00.669Z,5.60
2019-05-03T13:19:48.596Z,4.00
2019-05-03T13:22:36.765Z,5.23
2019-05-03T13:25:25.893Z,4.63
2019-05-03T13:28:15.304Z,4.73
2019-05-03T13:31:05.446Z,3.90
2019-05-03T13:33:54.761Z,3.70
2019-05-03T13:36:42.040Z,3.17
2019-05-03T13:39:29.908Z,3.50
2019-05-03T13:42:17.645Z,4.87
2019-05-03T13:45:07.199Z,4.83
2019-05-03T13:47:55.311Z,4.53
2019-05-03T13:50:44.569Z,4.30
2019-05-03T13:53:34.678Z,5.80
2019-05-03T13:56:21.736Z,3.80
2019-05-03T13:59:19.083Z,3.60
2019-05-03T14:02:11.472Z,3.77
2019-05-03T14:04:52.353Z,6.63
2019-05-03T14:07:38.597Z,5.60
2019-05-03T14:10:26.436Z,6.23
2019-05-03T14:13:14.249Z,6.37
2019-05-03T14:16:02.384Z,5.97
2019-05-03T14:18:51.723Z,10.30
2019-05-03T14:21:47.209Z,5.97
2019-05-03T14:24:35.213Z,9.80
2019-05-03T14:27:22.797Z,4.50
2019-05-03T14:30:11.068Z,5.30
2019-05-03T14:32:58.942Z,4.60
2019-05-03T14:35:46.984Z,6.30
2019-05-03T14:38:34.696Z,5.43
2019-05-03T14:41:22.576Z,5.20
2019-05-03T14:44:10.508Z,5.03
2019-05-03T14:46:59.206Z,4.40
2019-05-03T14:49:47.043Z,5.70
2019-05-03T14:52:34.976Z,6.90
2019-05-03T14:55:36.959Z,6.00
2019-05-03T14:58:29.613Z,5.17
2019-05-03T15:01:19.184Z,6.97
2019-05-03T15:04:06.974Z,4.87
2019-05-03T15:06:57.722Z,4.90
2019-05-03T15:09:45.816Z,6.00
2019-05-03T15:12:35.780Z,4.17
2019-05-03T15:15:25.083Z,4.37
2019-05-03T15:18:14.912Z,5.10
2019-05-03T15:21:02.848Z,4.23
2019-05-03T15:23:50.581Z,6.13
2019-05-03T15:26:38.472Z,5.50
2019-05-03T15:29:26.173Z,4.73
2019-05-03T15:32:15.602Z,3.07
2019-05-03T15:35:05.551Z,3.00
2019-05-03T15:37:55.646Z,3.13
2019-05-03T15:40:46.185Z,3.47
2019-05-03T15:43:35.421Z,4.13
2019-05-03T15:46:25.223Z,3.87
2019-05-03T15:49:15.111Z,3.30
2019-05-03T15:52:04.690Z,3.57
2019-05-03T15:54:52.491Z,3.50
2019-05-03T15:57:40.497Z,3.90
2019-05-03T16:00:28.523Z,4.37
2019-05-03T16:03:16.821Z,6.47
2019-05-03T16:06:05.022Z,5.10
2019-05-03T16:08:55.100Z,5.70
2019-05-03T16:11:44.952Z,5.10
2019-05-03T16:14:32.285Z,4.80
2019-05-03T16:17:21.086Z,5.20
2019-05-03T16:20:09.481Z,5.93
2019-05-03T16:25:54.235Z,4.10
2019-05-03T16:29:00.116Z,4.47
2019-05-03T16:31:48.288Z,4.13
2019-05-03T16:34:39.172Z,3.93
2019-05-03T16:37:26.888Z,4.37
2019-05-03T16:40:16.799Z,3.93
2019-05-03T16:43:05.149Z,4.93
2019-05-03T16:45:54.998Z,4.03
2019-05-03T16:48:44.864Z,5.10
2019-05-03T16:51:34.771Z,3.73
2019-05-03T16:54:25.387Z,5.47
2019-05-03T16:57:14.875Z,5.03
2019-05-03T17:00:05.701Z,3.77
2019-05-03T17:02:55.258Z,3.73
2019-05-03T17:05:50.381Z,3.47
2019-05-03T17:08:40.018Z,3.23
2019-05-03T17:11:29.471Z,3.53
2019-05-03T17:14:17.106Z,3.83
2019-05-03T17:17:14.797Z,3.57
2019-05-03T17:20:04.403Z,3.97
2019-05-03T17:22:52.181Z,3.97
2019-05-03T17:25:39.969Z,4.47
2019-05-03T17:28:27.589Z,3.97
2019-05-03T17:31:15.328Z,3.93
2019-05-03T17:34:05.399Z,5.93
2019-05-03T17:36:54.454Z,5.70
2019-05-03T17:39:45.521Z,6.70
2019-05-03T17:42:50.586Z,5.53
2019-05-03T17:45:52.748Z,4.20
2019-05-03T17:48:40.581Z,4.47
2019-05-03T17:51:39.000Z,4.30
2019-05-03T17:54:28.670Z,4.87
2019-05-03T17:57:30.132Z,5.23
2019-05-03T18:00:31.971Z,4.10
2019-05-03T18:03:21.211Z,30.50
2019-05-03T18:06:10.631Z,13.37
2019-05-03T18:09:08.916Z,14.50
2019-05-03T18:11:58.472Z,8.93
2019-05-03T18:14:46.572Z,6.90
2019-05-03T18:17:35.257Z,5.40
2019-05-03T18:20:25.447Z,5.73
2019-05-03T18:23:15.969Z,9.33
2019-05-03T18:26:05.266Z,5.73
2019-05-03T18:28:55.261Z,20.03
2019-05-03T18:31:44.594Z,11.07
2019-05-03T18:34:33.117Z,20.50
2019-05-03T18:37:21.319Z,14.43
2019-05-03T18:40:10.121Z,12.20
2019-05-03T18:43:04.547Z,10.70
2019-05-03T18:45:54.625Z,8.33
2019-05-03T18:48:44.455Z,19.37
2019-05-03T18:51:34.034Z,39.90
2019-05-03T18:54:22.092Z,10.37
2019-05-03T18:57:09.887Z,6.53
2019-05-03T18:59:58.019Z,12.07
2019-05-03T19:02:47.559Z,7.87
2019-05-03T19:05:40.076Z,7.40
2019-05-03T19:08:36.198Z,8.27
2019-05-03T19:11:31.992Z,8.17
2019-05-03T19:14:21.862Z,8.10
2019-05-03T19:17:16.913Z,4.40
2019-05-03T19:20:07.871Z,7.10
2019-05-03T19:22:55.659Z,8.87
2019-05-03T19:25:49.038Z,6.03
2019-05-03T19:28:35.427Z,6.30
2019-05-03T19:31:25.171Z,7.60
2019-05-03T19:34:15.301Z,4.40
2019-05-03T19:37:05.138Z,6.63
2019-05-03T19:39:55.044Z,4.50
2019-05-03T19:42:44.618Z,5.97
2019-05-03T19:45:45.214Z,5.20
2019-05-03T19:48:34.784Z,7.53
2019-05-03T19:51:23.304Z,5.10
2019-05-03T19:54:11.061Z,5.30
2019-05-03T19:56:58.870Z,5.60
2019-05-03T19:59:56.869Z,4.60
2019-05-03T20:02:58.358Z,4.97
2019-05-03T20:05:50.903Z,6.83
2019-05-03T20:08:40.427Z,6.40
2019-05-03T20:11:34.741Z,6.17
2019-05-03T20:14:22.616Z,4.57
2019-05-03T20:17:10.452Z,5.20
2019-05-03T20:19:58.407Z,8.43
2019-05-03T20:22:47.671Z,5.03
2019-05-03T20:25:35.736Z,7.17
2019-05-03T20:28:24.679Z,6.17
2019-05-03T20:31:12.861Z,6.20
2019-05-03T20:34:00.578Z,10.43
2019-05-03T20:36:48.384Z,11.57
2019-05-03T20:39:36.343Z,9.43
2019-05-03T20:42:44.851Z,7.80
2019-05-03T20:45:37.451Z,7.73
2019-05-03T20:48:46.498Z,6.63
2019-05-03T20:51:34.619Z,5.93
2019-05-03T20:54:22.589Z,5.70
2019-05-03T20:57:10.303Z,6.50
2019-05-03T20:59:58.360Z,7.30
2019-05-03T21:02:53.294Z,4.73
2019-05-03T21:05:37.361Z,6.57
2019-05-03T21:08:25.713Z,6.03
2019-05-03T21:11:14.804Z,4.83
2019-05-03T21:14:04.772Z,4.70
2019-05-03T21:17:11.130Z,6.13
2019-05-03T21:20:00.909Z,10.63
2019-05-03T21:22:48.767Z,10.33
2019-05-03T21:26:02.702Z,8.77
2019-05-03T21:28:28.317Z,5.93
2019-05-03T21:31:16.032Z,8.53
2019-05-03T21:34:25.155Z,6.67
2019-05-03T21:37:15.037Z,5.50
2019-05-03T21:40:05.158Z,5.57
2019-05-03T21:42:54.601Z,5.63
2019-05-03T21:45:45.337Z,6.63
2019-05-03T21:48:55.252Z,20.50
2019-05-03T21:51:44.844Z,14.93
2019-05-03T21:54:34.513Z,9.20
2019-05-03T21:57:22.691Z,8.10
2019-05-03T22:00:11.777Z,7.60
2019-05-03T22:02:59.611Z,7.50
2019-05-03T22:05:54.944Z,7.93
2019-05-03T22:08:37.019Z,7.60
2019-05-03T22:11:25.289Z,6.97
2019-05-03T22:14:15.181Z,7.20
2019-05-03T22:17:22.880Z,8.43
2019-05-03T22:20:13.321Z,6.53
2019-05-03T22:23:08.836Z,8.53
2019-05-03T22:25:57.171Z,11.40
2019-05-03T22:28:45.199Z,9.73
2019-05-03T22:31:34.976Z,9.53
2019-05-03T22:34:42.435Z,9.70
2019-05-03T22:37:30.499Z,20.27
2019-05-03T22:40:18.416Z,14.60
2019-05-03T22:43:06.339Z,14.33
2019-05-03T22:45:54.805Z,24.97
2019-05-03T22:48:44.951Z,9.70
2019-05-03T22:51:34.482Z,10.23
2019-05-03T22:54:24.562Z,7.80
2019-05-03T22:57:15.494Z,5.53
2019-05-03T23:00:07.173Z,8.30
2019-05-03T23:02:54.979Z,5.37
2019-05-03T23:05:46.331Z,5.63
2019-05-03T23:08:34.552Z,7.90
2019-05-03T23:11:24.423Z,6.00
2019-05-03T23:14:14.850Z,6.37
2019-05-03T23:17:02.746Z,6.27
2019-05-03T23:19:52.158Z,5.17
2019-05-03T23:22:40.559Z,6.90
2019-05-03T23:25:30.664Z,6.63
2019-05-03T23:28:18.360Z,6.97
2019-05-03T23:31:05.632Z,6.03
2019-05-03T23:33:54.502Z,6.63
2019-05-03T23:36:43.141Z,5.47
2019-05-03T23:39:31.359Z,6.23
2019-05-03T23:42:19.139Z,7.93
2019-05-03T23:45:06.939Z,6.30
2019-05-03T23:47:56.472Z,8.43
2019-05-03T23:50:44.627Z,6.83
2019-05-03T23:53:32.915Z,6.93
2019-05-03T23:56:24.287Z,6.77
2019-05-03T23:59:12.395Z,6.47
